Time;durP1;ratioP1;P1;durP2;ratioP2;P2;SDS_P1;SDS_P2;PMS_P1;PMS_P2;Temp;Humidity;BMP_temperature;BMP_pressure;BME280_temperature;BME280_humidity;BME280_pressure;Samples;Min_cycle;Max_cycle;Signal;HPM_P1;HPM_P2
2022/06/08 00:01:47;;;;;;;32.63;27.00;;;;;;;15.05;100.00;100891.97;4988324;28;20401;-73
2022/06/08 00:04:22;;;;;;;30.88;27.60;;;;;;;15.04;100.00;100901.22;4994004;28;20470;-73
2022/06/08 00:06:56;;;;;;;32.03;27.98;;;;;;;15.01;100.00;100888.09;4994172;28;20390;-73
2022/06/08 00:09:33;;;;;;;33.53;29.52;;;;;;;14.98;100.00;100883.16;4994522;28;20034;-73
2022/06/08 00:12:09;;;;;;;30.20;26.90;;;;;;;14.94;100.00;100878.47;4994724;28;20219;-73
2022/06/08 00:14:46;;;;;;;30.02;26.05;;;;;;;14.94;100.00;100875.75;4994390;28;20030;-73
2022/06/08 00:17:23;;;;;;;29.67;26.55;;;;;;;14.93;100.00;100872.22;4994550;28;20030;-73
2022/06/08 00:19:55;;;;;;;30.88;27.52;;;;;;;14.96;100.00;100870.88;4994251;28;20034;-73
2022/06/08 00:22:29;;;;;;;32.42;28.38;;;;;;;14.98;100.00;100877.72;4994319;28;20042;-73
2022/06/08 00:25:03;;;;;;;33.88;28.77;;;;;;;14.96;100.00;100876.31;4994421;28;20048;-73
2022/06/08 00:27:37;;;;;;;33.28;29.67;;;;;;;14.91;100.00;100862.63;4994277;28;20034;-73
2022/06/08 00:30:11;;;;;;;35.60;29.88;;;;;;;14.92;100.00;100859.66;4994304;28;20033;-73
2022/06/08 00:32:44;;;;;;;34.85;30.73;;;;;;;14.89;100.00;100860.97;4994218;28;20493;-73
2022/06/08 00:35:18;;;;;;;33.78;30.05;;;;;;;14.90;100.00;100867.28;4993744;28;20109;-73
2022/06/08 00:37:50;;;;;;;32.92;29.02;;;;;;;14.86;100.00;100858.75;4993594;28;20030;-73
2022/06/08 00:40:24;;;;;;;31.95;28.55;;;;;;;14.84;100.00;100851.91;4993672;28;20041;-73
2022/06/08 00:42:58;;;;;;;32.95;28.63;;;;;;;14.79;100.00;100843.69;4993799;28;20486;-73
2022/06/08 00:45:32;;;;;;;35.17;30.48;;;;;;;14.73;100.00;100841.97;4994030;28;20088;-73
2022/06/08 00:48:06;;;;;;;32.38;28.75;;;;;;;14.70;100.00;100840.56;4974553;28;20474;-73
2022/06/08 00:50:39;;;;;;;34.05;30.25;;;;;;;14.68;100.00;100848.19;4979287;28;20029;-73
2022/06/08 00:53:07;;;;;;;34.33;30.48;;;;;;;14.66;100.00;100834.81;4994005;28;20553;-73
2022/06/08 00:55:38;;;;;;;35.25;29.77;;;;;;;14.67;100.00;100833.75;4993951;28;20470;-73
2022/06/08 00:58:18;;;;;;;33.05;29.02;;;;;;;14.64;100.00;100836.97;4993972;28;20073;-73
2022/06/08 01:00:44;;;;;;;32.80;28.35;;;;;;;14.66;100.00;100840.28;4990528;28;20777;-73
2022/06/08 01:03:12;;;;;;;35.40;29.48;;;;;;;14.61;100.00;100832.00;4993561;28;20046;-73
2022/06/08 01:05:57;;;;;;;34.63;29.92;;;;;;;14.59;100.00;100823.25;4993060;28;20066;-73
2022/06/08 01:08:38;;;;;;;33.75;28.13;;;;;;;14.60;100.00;100834.97;4993666;28;20034;-73
2022/06/08 01:11:09;;;;;;;31.52;26.83;;;;;;;14.53;100.00;100822.34;4994039;28;20040;-73
2022/06/08 01:13:37;;;;;;;31.33;27.00;;;;;;;14.54;100.00;100823.19;5009314;28;20042;-73
2022/06/08 01:16:04;;;;;;;33.90;28.25;;;;;;;14.49;100.00;100815.78;4993680;28;20117;-73
2022/06/08 01:18:31;;;;;;;33.22;27.27;;;;;;;14.45;100.00;100811.09;4994395;28;20042;-73
2022/06/08 01:21:18;;;;;;;34.78;26.98;;;;;;;14.46;100.00;100812.72;4993612;28;20071;-73
2022/06/08 01:23:43;;;;;;;32.00;27.83;;;;;;;14.40;100.00;100802.84;4994274;28;20046;-73
2022/06/08 01:26:18;;;;;;;31.70;26.38;;;;;;;14.39;100.00;100802.03;4994517;28;20105;-73
2022/06/08 01:29:01;;;;;;;32.47;28.05;;;;;;;14.40;100.00;100797.41;4994119;28;20120;-73
2022/06/08 01:31:50;;;;;;;32.90;26.45;;;;;;;14.37;100.00;100793.28;4995023;28;20441;-73
2022/06/08 01:34:35;;;;;;;32.63;26.90;;;;;;;14.35;100.00;100790.00;4993265;28;20363;-73
2022/06/08 01:37:38;;;;;;;32.83;28.20;;;;;;;14.36;100.00;100787.03;4992461;28;20034;-73
2022/06/08 01:40:15;;;;;;;30.90;27.05;;;;;;;14.34;100.00;100780.16;4994356;28;20061;-73
2022/06/08 01:43:16;;;;;;;32.95;26.80;;;;;;;14.33;100.00;100782.06;4992828;28;20370;-74
2022/06/08 01:45:53;;;;;;;34.00;27.33;;;;;;;14.29;100.00;100780.94;4972822;28;20046;-73
2022/06/08 01:48:44;;;;;;;30.33;25.40;;;;;;;14.30;100.00;100782.59;4975125;28;20101;-73
2022/06/08 01:51:22;;;;;;;29.80;25.83;;;;;;;14.29;100.00;100775.47;4991274;28;20050;-73
2022/06/08 01:53:56;;;;;;;28.25;23.88;;;;;;;14.26;100.00;100764.28;4994182;28;20030;-73
2022/06/08 01:56:27;;;;;;;27.98;23.80;;;;;;;14.27;100.00;100757.78;4993647;28;20034;-73
2022/06/08 01:59:09;;;;;;;27.23;22.88;;;;;;;14.28;100.00;100759.41;4992946;28;20092;-73
2022/06/08 02:01:45;;;;;;;26.85;22.00;;;;;;;14.29;100.00;100752.91;4972372;28;20039;-73
2022/06/08 02:04:26;;;;;;;25.33;20.08;;;;;;;14.27;100.00;100753.16;4976716;28;20106;-73
2022/06/08 02:06:58;;;;;;;25.60;20.73;;;;;;;14.24;100.00;100750.94;4993323;28;20030;-73
2022/06/08 02:09:31;;;;;;;;;;;;;;;14.38;100.00;100742.41;4994428;28;20042;-73
2022/06/08 02:12:07;;;;;;;24.83;20.05;;;;;;;14.24;100.00;100731.88;4993904;28;19949;-73
2022/06/08 02:14:38;;;;;;;23.63;18.88;;;;;;;14.18;100.00;100738.34;4988891;28;20038;-73
2022/06/08 02:17:40;;;;;;;23.60;18.65;;;;;;;14.23;100.00;100732.94;4993924;28;20034;-73
2022/06/08 02:20:08;;;;;;;;;;;;;;;14.32;100.00;100717.81;4994122;28;20038;-73
2022/06/08 02:22:47;;;;;;;21.42;17.30;;;;;;;14.21;100.00;100723.41;4992872;28;20276;-72
2022/06/08 02:25:22;;;;;;;24.20;17.95;;;;;;;14.17;100.00;100717.63;4993568;28;20034;-73
2022/06/08 02:27:54;;;;;;;24.13;19.00;;;;;;;14.14;100.00;100713.50;4992552;28;20536;-75
2022/06/08 02:30:24;;;;;;;22.83;18.55;;;;;;;14.12;100.00;100702.06;4992139;28;20030;-75
2022/06/08 02:35:52;;;;;;;20.90;16.67;;;;;;;14.14;100.00;100712.69;4993548;28;20045;-80
2022/06/08 02:38:24;;;;;;;22.35;17.85;;;;;;;14.08;100.00;100705.53;4992912;28;20033;-75
2022/06/08 02:40:54;;;;;;;23.20;17.35;;;;;;;14.11;100.00;100707.75;4993685;28;20402;-75
2022/06/08 02:43:32;;;;;;;22.23;16.90;;;;;;;14.06;100.00;100697.63;4993441;28;20100;-76
2022/06/08 02:46:23;;;;;;;20.77;15.88;;;;;;;14.11;100.00;100694.97;4992996;28;20157;-75
2022/06/08 02:48:49;;;;;;;20.08;15.63;;;;;;;14.04;100.00;100685.34;4972554;28;20491;-75
2022/06/08 02:51:14;;;;;;;20.27;15.63;;;;;;;14.00;100.00;100691.28;4979175;28;20088;-73
2022/06/08 02:53:48;;;;;;;17.90;14.68;;;;;;;13.97;100.00;100689.06;4992244;28;20076;-75
2022/06/08 02:56:24;;;;;;;17.70;14.52;;;;;;;13.95;100.00;100688.50;4973713;28;20475;-76
2022/06/08 02:59:00;;;;;;;19.75;14.85;;;;;;;13.95;100.00;100684.94;4975850;28;20066;-75
2022/06/08 03:01:42;;;;;;;18.08;14.30;;;;;;;13.91;100.00;100684.63;4990908;28;20038;-76
2022/06/08 03:04:14;;;;;;;16.48;13.57;;;;;;;13.94;100.00;100686.84;4993183;28;20065;-75
2022/06/08 03:06:46;;;;;;;15.85;13.10;;;;;;;13.95;100.00;100679.50;4992729;28;20022;-75
2022/06/08 03:09:15;;;;;;;17.70;14.02;;;;;;;13.94;100.00;100670.53;4992917;28;20061;-76
2022/06/08 03:11:45;;;;;;;17.83;13.10;;;;;;;13.93;100.00;100679.75;4992968;28;20637;-73
2022/06/08 03:14:15;;;;;;;16.02;13.02;;;;;;;13.94;100.00;100670.53;4993141;28;20034;-73
2022/06/08 03:16:54;;;;;;;16.70;13.15;;;;;;;13.90;100.00;100668.56;4992769;28;20038;-75
2022/06/08 03:19:20;;;;;;;17.58;13.18;;;;;;;13.89;100.00;100673.19;4993265;28;20026;-75
2022/06/08 03:21:46;;;;;;;15.52;11.55;;;;;;;13.85;100.00;100666.59;4992625;28;20051;-74
2022/06/08 03:24:12;;;;;;;16.98;11.88;;;;;;;13.85;100.00;100671.22;4993020;28;20541;-75
2022/06/08 03:26:43;;;;;;;14.80;11.40;;;;;;;13.89;100.00;100672.34;4992693;28;20113;-75
2022/06/08 03:29:09;;;;;;;13.68;11.07;;;;;;;13.88;100.00;100670.72;4991576;28;20125;-75
2022/06/08 03:31:34;;;;;;;15.80;10.57;;;;;;;13.90;100.00;100674.81;4991831;28;20109;-74
2022/06/08 03:34:00;;;;;;;11.48;9.80;;;;;;;13.89;100.00;100672.34;4991383;28;20030;-75
2022/06/08 03:36:25;;;;;;;12.98;9.52;;;;;;;13.88;100.00;100670.72;4993056;28;20113;-74
2022/06/08 03:38:50;;;;;;;12.80;9.80;;;;;;;13.93;100.00;100668.06;4995111;28;20038;-75
2022/06/08 03:41:16;;;;;;;11.18;9.70;;;;;;;13.95;100.00;100672.19;4996967;28;20080;-75
2022/06/08 03:43:41;;;;;;;11.02;9.05;;;;;;;13.95;100.00;100669.47;4995220;28;20122;-75
2022/06/08 03:46:10;;;;;;;11.32;9.50;;;;;;;13.99;100.00;100667.06;4996785;28;20030;-75
2022/06/08 03:48:36;;;;;;;12.05;9.05;;;;;;;13.97;100.00;100671.94;4996523;28;20093;-75
2022/06/08 03:51:02;;;;;;;12.60;9.77;;;;;;;13.97;100.00;100672.75;4995259;28;20508;-75
2022/06/08 03:53:32;;;;;;;12.35;8.75;;;;;;;14.05;100.00;100676.13;4995930;28;20038;-75
2022/06/08 03:56:00;;;;;;;9.45;8.40;;;;;;;14.06;100.00;100677.78;4994670;28;20385;-75
2022/06/08 03:58:26;;;;;;;12.88;8.98;;;;;;;14.07;100.00;100682.13;4996654;28;20034;-75
2022/06/08 04:00:52;;;;;;;11.90;9.27;;;;;;;14.09;100.00;100672.63;4993797;28;20709;-75
2022/06/08 04:03:18;;;;;;;12.43;8.82;;;;;;;14.11;100.00;100669.66;4995360;28;20030;-75
2022/06/08 04:05:43;;;;;;;10.90;8.43;;;;;;;14.10;100.00;100668.84;4995506;28;20034;-75
2022/06/08 04:08:09;;;;;;;10.98;8.80;;;;;;;14.10;100.00;100662.56;4996109;28;20031;-75
2022/06/08 04:10:35;;;;;;;17.95;9.65;;;;;;;14.12;100.00;100666.69;4996347;28;20169;-75
2022/06/08 04:13:00;;;;;;;9.77;8.73;;;;;;;14.14;100.00;100663.72;4996195;28;20145;-75
2022/06/08 04:15:44;;;;;;;13.52;8.77;;;;;;;14.14;100.00;100658.28;4997343;28;20030;-75
2022/06/08 04:18:13;;;;;;;8.60;7.40;;;;;;;14.17;100.00;100663.19;4996321;28;20038;-75
2022/06/08 04:20:40;;;;;;;9.43;8.45;;;;;;;14.17;100.00;100644.97;4996017;28;20084;-75
2022/06/08 04:23:06;;;;;;;8.95;7.85;;;;;;;14.20;100.00;100651.81;4994475;28;20093;-75
2022/06/08 04:25:32;;;;;;;8.85;7.95;;;;;;;14.22;100.00;100649.69;4991631;28;20402;-75
2022/06/08 04:27:58;;;;;;;9.80;7.57;;;;;;;14.23;100.00;100648.56;4994626;28;20041;-75
2022/06/08 04:30:23;;;;;;;11.80;7.30;;;;;;;14.23;100.00;100654.03;4995883;28;20038;-75
2022/06/08 04:32:49;;;;;;;8.57;7.05;;;;;;;14.27;100.00;100657.88;4995776;28;20034;-75
2022/06/08 04:35:16;;;;;;;7.60;6.80;;;;;;;14.28;100.00;100648.66;4991158;28;20474;-75
2022/06/08 04:37:41;;;;;;;9.15;7.13;;;;;;;14.29;100.00;100644.03;4976477;28;20038;-75
2022/06/08 04:40:10;;;;;;;8.55;6.85;;;;;;;14.33;100.00;100645.97;5006575;28;20034;-75
2022/06/08 04:42:36;;;;;;;8.25;7.45;;;;;;;14.36;100.00;100645.47;4995512;28;20030;-75
2022/06/08 04:45:04;;;;;;;9.95;7.55;;;;;;;14.36;100.00;100637.28;4994834;28;20117;-75
2022/06/08 04:47:29;;;;;;;12.48;7.70;;;;;;;14.42;100.00;100637.34;4995634;28;20023;-75
2022/06/08 04:49:55;;;;;;;10.13;7.28;;;;;;;14.43;100.00;100628.09;4995021;28;20062;-75
2022/06/08 04:52:20;;;;;;;10.10;7.35;;;;;;;14.47;100.00;100621.06;4995421;28;20045;-75
2022/06/08 04:54:46;;;;;;;9.10;7.25;;;;;;;14.52;100.00;100629.28;4994863;28;20062;-75
2022/06/08 04:57:11;;;;;;;11.18;7.10;;;;;;;14.54;100.00;100621.69;4995532;28;20033;-75
2022/06/08 04:59:37;;;;;;;9.30;6.93;;;;;;;14.55;100.00;100620.59;4993477;28;20083;-75
2022/06/08 05:02:02;;;;;;;9.10;7.10;;;;;;;14.57;100.00;100618.47;4992501;28;20034;-75
2022/06/08 05:04:28;;;;;;;7.57;6.72;;;;;;;14.59;100.00;100629.91;4995411;28;20494;-75
2022/06/08 05:06:53;;;;;;;8.90;6.47;;;;;;;14.60;100.00;100617.94;4994885;28;20061;-76
2022/06/08 05:09:18;;;;;;;6.90;6.20;;;;;;;14.61;100.00;100621.50;4995283;28;20110;-75
2022/06/08 05:11:44;;;;;;;8.93;6.00;;;;;;;14.64;100.00;100621.81;4995007;28;20161;-75
2022/06/08 05:14:09;;;;;;;8.77;6.07;;;;;;;14.62;100.00;100615.00;4995267;28;20114;-75
2022/06/08 05:16:34;;;;;;;6.70;5.95;;;;;;;14.64;100.00;100615.56;4993871;28;20121;-75
2022/06/08 05:19:00;;;;;;;9.52;6.03;;;;;;;14.62;100.00;100607.63;4990124;28;20118;-75
2022/06/08 05:21:25;;;;;;;7.95;5.97;;;;;;;14.65;100.00;100600.88;4975841;28;20027;-75
2022/06/08 05:23:50;;;;;;;10.40;5.72;;;;;;;14.67;100.00;100602.25;4992951;28;20129;-75
2022/06/08 05:26:16;;;;;;;7.85;5.60;;;;;;;14.73;100.00;100605.00;4994960;28;20473;-74
2022/06/08 05:28:41;;;;;;;8.13;5.97;;;;;;;14.73;100.00;100599.56;4993456;28;20396;-75
2022/06/08 05:31:07;;;;;;;12.48;5.70;;;;;;;14.78;100.00;100599.59;4994737;28;20034;-75
2022/06/08 05:33:33;;;;;;;9.93;5.78;;;;;;;14.74;100.00;100595.78;4994796;28;20038;-75
2022/06/08 05:35:59;;;;;;;9.63;5.95;;;;;;;14.78;100.00;100591.44;4994695;28;20035;-75
2022/06/08 05:38:24;;;;;;;9.45;5.97;;;;;;;14.79;100.00;100585.72;4993515;28;20117;-75
2022/06/08 05:40:50;;;;;;;11.15;5.72;;;;;;;14.81;100.00;100583.56;4993981;28;20031;-75
2022/06/08 05:43:16;;;;;;;6.18;5.43;;;;;;;14.80;100.00;100575.66;4994687;28;20038;-75
2022/06/08 05:45:43;;;;;;;9.20;5.50;;;;;;;14.84;100.00;100584.94;4994420;28;20061;-75
2022/06/08 05:48:09;;;;;;;10.18;6.05;;;;;;;14.86;100.00;100574.63;4993127;28;20070;-74
2022/06/08 05:50:36;;;;;;;8.20;5.32;;;;;;;14.88;100.00;100569.72;4991746;28;20058;-75
2022/06/08 05:53:02;;;;;;;5.95;5.35;;;;;;;14.89;100.00;100579.56;4993965;28;20466;-75
2022/06/08 05:55:28;;;;;;;7.05;5.53;;;;;;;14.90;100.00;100570.31;4993143;28;20124;-75
2022/06/08 05:57:54;;;;;;;9.25;5.28;;;;;;;14.96;100.00;100549.34;4994000;28;20082;-75
2022/06/08 06:00:25;;;;;;;10.30;5.07;;;;;;;14.98;100.00;100552.66;4993493;28;20034;-75
2022/06/08 06:02:51;;;;;;;7.70;5.35;;;;;;;15.02;100.00;100551.03;4992882;28;20034;-75
2022/06/08 06:05:21;;;;;;;7.78;5.50;;;;;;;15.05;100.00;100548.63;4994119;28;20482;-74
2022/06/08 06:07:47;;;;;;;6.53;5.03;;;;;;;15.06;100.00;100550.22;4994286;28;20030;-75
2022/06/08 06:10:13;;;;;;;8.25;5.30;;;;;;;15.09;100.00;100548.09;4993383;28;20041;-73
2022/06/08 06:12:38;;;;;;;7.45;5.28;;;;;;;15.10;100.00;100546.97;4994034;28;20042;-73
2022/06/08 06:15:05;;;;;;;7.13;5.10;;;;;;;15.13;100.00;100555.47;4993083;28;20371;-76
2022/06/08 06:17:30;;;;;;;6.53;5.38;;;;;;;15.16;100.00;100559.59;4994323;28;20042;-73
2022/06/08 06:19:57;;;;;;;7.72;5.05;;;;;;;15.12;100.00;100559.28;4993019;28;20038;-73
2022/06/08 06:22:22;;;;;;;7.60;5.38;;;;;;;15.14;100.00;100559.00;4993896;28;20471;-72
2022/06/08 06:24:48;;;;;;;9.40;4.80;;;;;;;15.16;100.00;100563.13;4993599;28;20106;-74
2022/06/08 06:27:13;;;;;;;7.13;5.30;;;;;;;15.15;100.00;100552.47;4993533;28;20116;-72
2022/06/08 06:29:39;;;;;;;8.35;5.28;;;;;;;15.16;100.00;100559.59;4993446;28;20038;-74
2022/06/08 06:32:10;;;;;;;15.48;5.32;;;;;;;15.16;100.00;100562.31;4993356;28;20486;-73
2022/06/08 06:34:37;;;;;;;;;;;;;;;15.28;100.00;100573.00;4992873;28;20434;-73
2022/06/08 06:37:02;;;;;;;6.05;4.70;;;;;;;15.13;100.00;100558.19;4991999;28;20012;-72
2022/06/08 06:39:27;;;;;;;7.63;5.10;;;;;;;15.15;100.00;100558.75;4989747;28;20034;-74
2022/06/08 06:41:54;;;;;;;8.90;5.22;;;;;;;15.20;100.00;100563.41;4992720;28;20092;-74
2022/06/08 06:44:20;;;;;;;7.72;5.30;;;;;;;15.23;100.00;100555.53;4993217;28;20049;-73
2022/06/08 06:46:45;;;;;;;6.38;4.22;;;;;;;15.29;100.00;100555.56;4993217;28;20046;-73
2022/06/08 06:49:11;;;;;;;10.15;4.95;;;;;;;15.35;100.00;100554.50;4991451;28;20522;-73
2022/06/08 06:51:38;;;;;;;10.95;4.75;;;;;;;15.41;100.00;100548.81;4993310;28;20113;-73
2022/06/08 06:54:05;;;;;;;9.05;5.00;;;;;;;15.50;100.00;100537.41;4990908;28;20026;-74
2022/06/08 06:56:32;;;;;;;7.50;5.03;;;;;;;15.61;100.00;100544.56;4991315;28;20045;-74
2022/06/08 06:58:59;;;;;;;11.13;5.05;;;;;;;15.70;100.00;100532.03;4991695;28;20053;-75
2022/06/08 07:01:25;;;;;;;6.35;4.50;;;;;;;15.73;100.00;100531.50;4988899;28;20030;-72
2022/06/08 07:03:50;;;;;;;8.65;4.20;;;;;;;15.75;100.00;100539.44;4991180;28;20124;-72
2022/06/08 07:06:16;;;;;;;7.35;4.20;;;;;;;15.81;100.00;100543.03;4992570;28;20153;-77
2022/06/08 07:08:41;;;;;;;10.20;4.15;;;;;;;15.87;100.00;100536.50;4992711;28;20023;-73
2022/06/08 07:13:51;;;;;;;8.95;3.63;;;;;;;16.04;100.00;100530.81;4992787;28;20041;-74
2022/06/08 07:16:16;;;;;;;11.02;3.65;;;;;;;16.12;100.00;100531.09;4993028;28;20034;-73
2022/06/08 07:18:42;;;;;;;10.23;3.38;;;;;;;16.19;100.00;100530.03;4991699;28;20030;-76
2022/06/08 07:21:08;;;;;;;9.23;3.50;;;;;;;16.18;100.00;100533.84;4992827;28;20042;-71
2022/06/08 07:23:34;;;;;;;4.28;3.08;;;;;;;16.23;100.00;100525.63;4992895;28;20150;-75
2022/06/08 07:25:59;;;;;;;8.23;3.25;;;;;;;16.28;100.00;100529.19;4992395;28;20513;-73
2022/06/08 07:28:24;;;;;;;8.38;3.45;;;;;;;16.32;100.00;100526.78;4993132;28;20026;-73
2022/06/08 07:30:50;;;;;;;8.15;3.30;;;;;;;16.33;100.00;100522.94;4992912;28;20038;-72
2022/06/08 07:33:15;;;;;;;5.40;3.13;;;;;;;16.34;100.00;100524.56;4991572;28;20037;-72
2022/06/08 07:35:40;;;;;;;8.88;3.55;;;;;;;16.39;100.00;100524.56;4992908;28;20038;-74
2022/06/08 07:38:06;;;;;;;10.00;3.28;;;;;;;16.44;100.00;100519.13;4992775;28;20022;-71
2022/06/08 07:40:31;;;;;;;7.57;3.40;;;;;;;16.55;100.00;100521.88;4992685;28;20034;-73
2022/06/08 07:42:57;;;;;;;10.27;3.15;;;;;;;16.61;100.00;100512.56;4992509;28;20041;-72
2022/06/08 07:45:22;;;;;;;9.57;3.38;;;;;;;16.67;100.00;100516.94;4993052;28;20026;-73
2022/06/08 07:50:33;;;;;;;11.18;3.30;;;;;;;16.73;100.00;100521.31;4991389;28;20046;-72
2022/06/08 07:52:59;;;;;;;12.13;3.17;;;;;;;16.80;100.00;100521.00;4992209;28;20039;-72
2022/06/08 07:55:24;;;;;;;8.55;3.10;;;;;;;16.84;100.00;100520.19;4992189;28;20088;-73
2022/06/08 07:57:50;;;;;;;9.02;3.08;;;;;;;16.89;100.00;100526.78;4992604;28;20145;-72
2022/06/08 08:00:17;;;;;;;10.35;2.85;;;;;;;16.88;100.00;100525.13;4992051;28;20117;-73
2022/06/08 08:02:42;;;;;;;8.10;2.88;;;;;;;16.82;100.00;100525.13;4989900;28;20042;-72
2022/06/08 08:05:09;;;;;;;7.18;3.08;;;;;;;16.81;100.00;100526.22;4992534;28;20034;-74
2022/06/08 08:07:36;;;;;;;8.65;3.08;;;;;;;16.77;100.00;100530.59;4992548;28;20108;-73
2022/06/08 08:10:07;;;;;;;9.68;3.15;;;;;;;16.79;100.00;100531.13;4992044;28;20041;-73
2022/06/08 08:12:34;;;;;;;7.95;3.15;;;;;;;16.76;100.00;100523.50;4992406;28;20086;-73
2022/06/08 08:14:59;;;;;;;7.60;3.00;;;;;;;16.72;100.00;100524.31;4984812;28;20049;-73
2022/06/08 08:17:24;;;;;;;6.85;3.20;;;;;;;16.71;100.00;100530.88;4992248;28;20027;-72
2022/06/08 08:19:50;;;;;;;8.98;3.47;;;;;;;16.65;100.00;100524.56;4991954;28;20363;-72
2022/06/08 08:22:16;;;;;;;8.75;3.05;;;;;;;16.66;100.00;100526.22;4992019;28;20051;-73
2022/06/08 08:24:42;;;;;;;6.55;3.00;;;;;;;16.66;100.00;100523.50;4994138;28;20097;-75
2022/06/08 08:27:07;;;;;;;11.18;3.30;;;;;;;16.64;100.00;100523.75;4995305;28;20030;-73
2022/06/08 08:29:33;;;;;;;8.48;2.95;;;;;;;16.65;100.00;100524.56;4995461;28;20097;-74
2022/06/08 08:31:58;;;;;;;11.63;3.28;;;;;;;16.72;100.00;100524.31;4995703;28;20077;-74
2022/06/08 08:34:24;;;;;;;7.28;3.35;;;;;;;16.69;100.00;100525.69;4995834;28;20034;-73
2022/06/08 08:36:49;;;;;;;12.80;3.40;;;;;;;16.65;100.00;100519.09;4986822;28;20482;-74
2022/06/08 08:39:15;;;;;;;8.93;3.22;;;;;;;16.64;100.00;100522.97;4988145;28;20109;-75
2022/06/08 08:44:40;;;;;;;9.35;3.22;;;;;;;16.62;100.00;100531.44;4995772;28;20049;-75
2022/06/08 08:47:12;;;;;;;9.45;3.20;;;;;;;16.63;100.00;100527.56;4995202;28;20038;-75
2022/06/08 08:49:45;;;;;;;5.85;3.30;;;;;;;16.66;100.00;100528.94;4995122;28;20034;-73
2022/06/08 08:52:32;;;;;;;6.57;3.28;;;;;;;16.65;100.00;100519.09;4994559;28;20234;-73
2022/06/08 08:55:06;;;;;;;9.65;3.53;;;;;;;16.66;100.00;100518.03;4980301;28;20053;-73
2022/06/08 08:57:42;;;;;;;6.80;3.15;;;;;;;16.65;100.00;100519.94;4993499;28;20401;-73
2022/06/08 09:00:51;;;;;;;10.25;3.75;;;;;;;16.69;100.00;100524.88;4996069;28;20521;-73
2022/06/08 09:03:25;;;;;;;11.63;3.15;;;;;;;16.63;100.00;100526.78;4994010;28;20034;-73
2022/06/08 09:05:58;;;;;;;6.20;2.60;;;;;;;16.65;100.00;100532.78;4992246;28;20488;-73
2022/06/08 09:08:25;;;;;;;10.23;3.25;;;;;;;16.63;100.00;100532.22;4994728;28;20072;-73
2022/06/08 09:10:52;;;;;;;8.25;2.80;;;;;;;16.63;100.00;100529.50;4994882;28;20030;-73
2022/06/08 09:13:31;;;;;;;11.35;3.17;;;;;;;16.64;100.00;100528.41;4994916;28;20045;-74
2022/06/08 09:15:57;;;;;;;8.10;3.30;;;;;;;16.60;100.00;100533.59;4995172;28;20045;-73
2022/06/08 09:18:41;;;;;;;9.50;2.80;;;;;;;16.64;100.00;100533.88;4995175;28;20041;-74
2022/06/08 09:21:29;;;;;;;8.10;3.22;;;;;;;16.65;100.00;100532.78;4993468;28;20389;-72
2022/06/08 09:23:58;;;;;;;9.60;3.00;;;;;;;16.59;100.00;100528.41;4993686;28;20486;-76
2022/06/08 09:26:23;;;;;;;6.90;3.03;;;;;;;16.56;100.00;100527.06;4994449;28;20488;-77
2022/06/08 09:29:07;;;;;;;10.03;3.30;;;;;;;16.56;100.00;100531.69;4994921;28;20026;-76
2022/06/08 09:31:34;;;;;;;10.95;3.25;;;;;;;16.50;100.00;100532.78;4994885;28;20268;-74
2022/06/08 09:34:21;;;;;;;8.18;3.17;;;;;;;16.47;100.00;100531.41;4994340;28;20121;-77
2022/06/08 09:37:07;;;;;;;9.23;3.30;;;;;;;16.44;100.00;100535.50;4985487;28;20106;-75
2022/06/08 09:39:34;;;;;;;8.68;3.72;;;;;;;16.39;100.00;100532.75;4994691;28;20117;-73
2022/06/08 09:42:03;;;;;;;12.18;3.78;;;;;;;16.39;100.00;100534.69;4994513;28;20035;-75
2022/06/08 09:44:41;;;;;;;8.50;3.20;;;;;;;16.38;100.00;100533.88;4994975;28;20382;-75
2022/06/08 09:53:46;;;;;;;14.75;4.25;;;;;;;16.28;100.00;100537.41;4993829;28;20492;-72
2022/06/08 09:56:24;;;;;;;10.73;3.30;;;;;;;16.26;100.00;100544.22;4994157;28;20031;-74
2022/06/08 09:59:08;;;;;;;9.57;2.47;;;;;;;16.18;100.00;100542.03;4994348;28;20409;-75
2022/06/08 10:01:47;;;;;;;8.52;3.45;;;;;;;16.08;100.00;100540.09;4991722;28;20035;-76
2022/06/08 10:04:33;;;;;;;9.73;3.03;;;;;;;16.00;100.00;100530.50;4993862;28;20030;-75
2022/06/08 10:07:14;;;;;;;10.43;3.22;;;;;;;15.91;100.00;100537.59;5013489;28;20084;-75
2022/06/08 10:09:55;;;;;;;11.32;2.97;;;;;;;15.90;100.00;100544.16;4974730;28;20035;-72
2022/06/08 10:12:49;;;;;;;11.32;3.25;;;;;;;15.87;100.00;100537.31;4974191;28;20565;-73
2022/06/08 10:15:36;;;;;;;11.55;3.60;;;;;;;15.81;100.00;100534.84;4991660;28;20497;-74
2022/06/08 10:18:29;;;;;;;10.75;3.40;;;;;;;15.76;100.00;100532.84;4993757;28;20532;-74
2022/06/08 10:21:00;;;;;;;11.27;3.55;;;;;;;15.68;100.00;100539.66;4993899;28;20033;-73
2022/06/08 10:23:44;;;;;;;;;;;;;;;15.78;100.00;100536.19;4994385;28;20133;-71
2022/06/08 10:26:33;;;;;;;10.15;3.83;;;;;;;15.73;100.00;100531.50;4993254;28;19921;-73
2022/06/08 10:29:15;;;;;;;10.70;3.72;;;;;;;15.70;100.00;100526.59;4993917;28;20023;-73
2022/06/08 10:31:51;;;;;;;11.98;4.10;;;;;;;15.76;100.00;100533.69;4993326;28;20446;-73
2022/06/08 10:34:20;;;;;;;11.13;3.88;;;;;;;15.76;100.00;100532.84;4993583;28;20105;-76
2022/06/08 10:36:49;;;;;;;10.93;4.47;;;;;;;15.75;100.00;100534.78;4993605;28;20044;-74
2022/06/08 10:39:15;;;;;;;16.17;4.35;;;;;;;15.75;100.00;100529.31;4993539;28;20093;-74
2022/06/08 10:44:37;;;;;;;8.57;3.42;;;;;;;15.78;100.00;100522.56;4993396;28;20101;-74
2022/06/08 10:47:16;;;;;;;12.27;3.83;;;;;;;15.84;100.00;100531.59;4993013;28;20026;-74
2022/06/08 10:49:45;;;;;;;12.77;4.18;;;;;;;15.81;100.00;100526.66;4993261;28;20471;-74
2022/06/08 10:52:20;;;;;;;11.43;4.10;;;;;;;15.83;100.00;100530.75;4993396;28;20053;-73
2022/06/08 10:54:53;;;;;;;11.13;3.80;;;;;;;15.83;100.00;100525.28;4992161;28;20133;-74
2022/06/08 10:57:43;;;;;;;8.25;3.42;;;;;;;15.84;100.00;100516.03;4993313;28;20041;-75
2022/06/08 11:00:21;;;;;;;13.77;4.03;;;;;;;15.87;100.00;100517.41;4993227;28;20038;-74
2022/06/08 11:02:59;;;;;;;9.23;3.33;;;;;;;15.87;100.00;100520.94;4989954;28;20037;-73
2022/06/08 11:05:31;;;;;;;8.98;3.15;;;;;;;15.81;100.00;100510.28;4992669;28;20392;-74
2022/06/08 11:07:59;;;;;;;11.70;3.67;;;;;;;15.76;100.00;100519.22;4992999;28;20034;-74
2022/06/08 11:10:44;;;;;;;10.35;3.17;;;;;;;15.80;100.00;100512.19;4992345;28;20093;-75
2022/06/08 11:13:22;;;;;;;9.65;3.00;;;;;;;15.74;100.00;100513.22;4969389;28;20043;-75
2022/06/08 11:15:53;;;;;;;10.35;2.90;;;;;;;15.73;100.00;100500.66;4983865;28;20056;-76
2022/06/08 11:18:41;;;;;;;7.82;2.97;;;;;;;15.80;100.00;100504.00;4973542;28;20034;-76
2022/06/08 11:21:15;;;;;;;8.65;3.22;;;;;;;15.77;100.00;100494.44;4971875;28;20062;-76
2022/06/08 11:23:49;;;;;;;9.45;2.80;;;;;;;15.74;100.00;100489.47;4992409;28;20049;-76
2022/06/08 11:26:26;;;;;;;8.68;3.05;;;;;;;15.68;100.00;100490.56;4973385;28;20041;-74
2022/06/08 11:28:57;;;;;;;10.77;2.88;;;;;;;15.70;100.00;100490.28;4973490;28;20101;-73
2022/06/08 11:31:25;;;;;;;;;;;;;;;15.80;100.00;100481.38;4973418;28;20037;-74
2022/06/08 11:34:07;;;;;;;11.63;3.30;;;;;;;15.68;100.00;100482.38;4973405;28;19918;-74
2022/06/08 11:37:02;;;;;;;9.27;3.20;;;;;;;15.67;100.00;100477.19;4973559;28;20026;-73
2022/06/08 11:39:42;;;;;;;16.13;3.50;;;;;;;15.74;100.00;100475.03;4964974;28;20053;-75
2022/06/08 11:42:13;;;;;;;10.98;3.40;;;;;;;15.76;100.00;100470.97;4992671;28;20037;-76
2022/06/08 11:44:43;;;;;;;11.32;3.08;;;;;;;15.73;100.00;100470.66;4992913;28;20426;-75
2022/06/08 11:47:11;;;;;;;8.73;3.30;;;;;;;15.69;100.00;100470.38;4992176;28;20418;-75
2022/06/08 11:49:39;;;;;;;8.60;3.20;;;;;;;15.57;100.00;100462.44;4992673;28;20081;-76
2022/06/08 11:52:35;;;;;;;8.90;2.90;;;;;;;15.61;100.00;100465.47;4992518;28;20085;-75